sensor_id;sensor_type;location;lat;lon;timestamp;P1;durP1;ratioP1;P2;durP2;ratioP2
40170;SDS011;37650;52.790;18.268;2023-08-06T16:45:58;4.00;;;0.90;;
40170;SDS011;37650;52.790;18.268;2023-08-06T16:49:19;1.70;;;0.70;;
40170;SDS011;37650;52.790;18.268;2023-08-06T16:52:42;0.90;;;0.60;;
40170;SDS011;37650;52.790;18.268;2023-08-06T16:56:04;0.80;;;0.70;;
40170;SDS011;37650;52.790;18.268;2023-08-06T16:59:25;1.70;;;0.80;;
40170;SDS011;37650;52.790;18.268;2023-08-06T17:02:47;5.00;;;3.50;;
40170;SDS011;37650;52.790;18.268;2023-08-06T17:06:09;6.00;;;4.30;;
40170;SDS011;37650;52.790;18.268;2023-08-06T17:09:35;8.50;;;7.60;;
40170;SDS011;37650;52.790;18.268;2023-08-06T17:12:57;3.70;;;1.40;;
40170;SDS011;37650;52.790;18.268;2023-08-06T17:16:18;1.30;;;0.70;;
40170;SDS011;37650;52.790;18.268;2023-08-06T17:19:43;2.00;;;0.60;;
40170;SDS011;37650;52.790;18.268;2023-08-06T17:23:04;3.40;;;1.00;;
40170;SDS011;37650;52.790;18.268;2023-08-06T17:26:26;1.50;;;0.60;;
40170;SDS011;37650;52.790;18.268;2023-08-06T17:29:48;4.90;;;1.90;;
40170;SDS011;37650;52.790;18.268;2023-08-06T17:33:10;5.00;;;3.00;;
40170;SDS011;37650;52.790;18.268;2023-08-06T17:36:32;8.40;;;4.70;;
40170;SDS011;37650;52.790;18.268;2023-08-06T17:39:54;8.70;;;3.60;;
40170;SDS011;37650;52.790;18.268;2023-08-06T17:43:17;6.40;;;3.90;;
40170;SDS011;37650;52.790;18.268;2023-08-06T17:46:39;13.10;;;4.60;;
40170;SDS011;37650;52.790;18.268;2023-08-06T17:50:01;4.50;;;2.70;;
40170;SDS011;37650;52.790;18.268;2023-08-06T17:53:24;5.10;;;2.20;;
40170;SDS011;37650;52.790;18.268;2023-08-06T17:56:46;3.10;;;1.50;;
40170;SDS011;37650;52.790;18.268;2023-08-06T18:00:08;2.60;;;0.90;;
40170;SDS011;37650;52.790;18.268;2023-08-06T18:03:33;4.30;;;1.50;;
40170;SDS011;37650;52.790;18.268;2023-08-06T18:06:54;3.30;;;1.70;;
40170;SDS011;37650;52.790;18.268;2023-08-06T18:10:16;6.20;;;4.10;;
40170;SDS011;37650;52.790;18.268;2023-08-06T18:13:38;6.70;;;3.90;;
40170;SDS011;37650;52.790;18.268;2023-08-06T18:17:00;8.40;;;4.90;;
40170;SDS011;37650;52.790;18.268;2023-08-06T18:20:21;12.50;;;7.60;;
40170;SDS011;37650;52.790;18.268;2023-08-06T18:23:43;11.40;;;6.80;;
40170;SDS011;37650;52.790;18.268;2023-08-06T18:27:05;9.30;;;4.10;;
40170;SDS011;37650;52.790;18.268;2023-08-06T18:30:27;4.60;;;2.70;;
40170;SDS011;37650;52.790;18.268;2023-08-06T18:33:49;2.70;;;1.00;;
40170;SDS011;37650;52.790;18.268;2023-08-06T18:37:11;1.70;;;0.90;;
40170;SDS011;37650;52.790;18.268;2023-08-06T18:43:55;2.00;;;1.00;;
40170;SDS011;37650;52.790;18.268;2023-08-06T18:47:17;1.00;;;0.60;;
40170;SDS011;37650;52.790;18.268;2023-08-06T18:50:39;1.60;;;0.50;;
40170;SDS011;37650;52.790;18.268;2023-08-06T18:54:01;1.30;;;0.50;;
40170;SDS011;37650;52.790;18.268;2023-08-06T18:57:22;1.20;;;0.60;;
40170;SDS011;37650;52.790;18.268;2023-08-06T19:00:44;1.60;;;0.50;;
40170;SDS011;37650;52.790;18.268;2023-08-06T19:04:06;0.60;;;0.30;;
40170;SDS011;37650;52.790;18.268;2023-08-06T19:07:29;1.70;;;0.40;;
40170;SDS011;37650;52.790;18.268;2023-08-06T19:10:52;1.70;;;0.40;;
40170;SDS011;37650;52.790;18.268;2023-08-06T19:14:19;2.10;;;0.60;;
40170;SDS011;37650;52.790;18.268;2023-08-06T19:17:40;2.10;;;0.80;;
40170;SDS011;37650;52.790;18.268;2023-08-06T19:21:05;2.00;;;0.90;;
40170;SDS011;37650;52.790;18.268;2023-08-06T19:24:28;3.70;;;0.90;;
40170;SDS011;37650;52.790;18.268;2023-08-06T19:27:50;1.50;;;0.70;;
40170;SDS011;37650;52.790;18.268;2023-08-06T19:31:12;1.80;;;0.60;;
40170;SDS011;37650;52.790;18.268;2023-08-06T19:34:33;1.90;;;0.40;;
40170;SDS011;37650;52.790;18.268;2023-08-06T19:37:57;1.70;;;0.30;;
40170;SDS011;37650;52.790;18.268;2023-08-06T19:41:19;0.50;;;0.40;;
40170;SDS011;37650;52.790;18.268;2023-08-06T19:44:42;4.20;;;0.30;;
40170;SDS011;37650;52.790;18.268;2023-08-06T19:48:04;1.90;;;0.60;;
40170;SDS011;37650;52.790;18.268;2023-08-06T19:51:27;3.80;;;0.60;;
40170;SDS011;37650;52.790;18.268;2023-08-06T19:54:50;0.50;;;0.40;;
40170;SDS011;37650;52.790;18.268;2023-08-06T19:58:12;1.50;;;0.80;;
40170;SDS011;37650;52.790;18.268;2023-08-06T20:01:34;1.80;;;0.50;;
40170;SDS011;37650;52.790;18.268;2023-08-06T20:04:56;3.30;;;0.60;;
40170;SDS011;37650;52.790;18.268;2023-08-06T20:08:18;1.00;;;0.40;;
40170;SDS011;37650;52.790;18.268;2023-08-06T20:11:41;0.70;;;0.50;;
40170;SDS011;37650;52.790;18.268;2023-08-06T20:15:03;1.60;;;0.60;;
40170;SDS011;37650;52.790;18.268;2023-08-06T20:18:25;2.30;;;1.40;;
40170;SDS011;37650;52.790;18.268;2023-08-06T20:25:08;3.10;;;1.90;;
40170;SDS011;37650;52.790;18.268;2023-08-06T20:28:31;3.80;;;2.50;;
40170;SDS011;37650;52.790;18.268;2023-08-06T20:31:53;3.20;;;1.40;;
40170;SDS011;37650;52.790;18.268;2023-08-06T20:35:15;1.30;;;0.70;;
40170;SDS011;37650;52.790;18.268;2023-08-06T20:38:36;1.10;;;0.50;;
40170;SDS011;37650;52.790;18.268;2023-08-06T20:41:58;1.20;;;0.50;;
40170;SDS011;37650;52.790;18.268;2023-08-06T20:45:20;1.00;;;0.60;;
40170;SDS011;37650;52.790;18.268;2023-08-06T20:48:41;1.40;;;0.50;;
40170;SDS011;37650;52.790;18.268;2023-08-06T20:52:03;1.50;;;0.50;;
40170;SDS011;37650;52.790;18.268;2023-08-06T20:55:25;0.50;;;0.40;;
40170;SDS011;37650;52.790;18.268;2023-08-06T20:58:47;2.20;;;0.50;;
40170;SDS011;37650;52.790;18.268;2023-08-06T21:02:08;1.30;;;0.80;;
40170;SDS011;37650;52.790;18.268;2023-08-06T21:05:30;4.50;;;2.40;;
40170;SDS011;37650;52.790;18.268;2023-08-06T21:08:51;4.60;;;3.30;;
40170;SDS011;37650;52.790;18.268;2023-08-06T21:12:12;5.60;;;2.30;;
40170;SDS011;37650;52.790;18.268;2023-08-06T21:15:34;4.60;;;2.70;;
40170;SDS011;37650;52.790;18.268;2023-08-06T21:18:55;9.40;;;5.50;;
40170;SDS011;37650;52.790;18.268;2023-08-06T21:22:16;12.70;;;8.30;;
40170;SDS011;37650;52.790;18.268;2023-08-06T21:25:37;15.00;;;9.10;;
40170;SDS011;37650;52.790;18.268;2023-08-06T21:28:58;10.80;;;8.30;;
40170;SDS011;37650;52.790;18.268;2023-08-06T21:32:19;9.40;;;6.40;;
40170;SDS011;37650;52.790;18.268;2023-08-06T21:35:40;7.00;;;4.00;;
40170;SDS011;37650;52.790;18.268;2023-08-06T21:39:01;7.50;;;5.50;;
40170;SDS011;37650;52.790;18.268;2023-08-06T21:42:22;7.60;;;4.30;;
40170;SDS011;37650;52.790;18.268;2023-08-06T21:45:44;9.90;;;4.90;;
40170;SDS011;37650;52.790;18.268;2023-08-06T21:49:05;10.70;;;5.20;;
40170;SDS011;37650;52.790;18.268;2023-08-06T21:52:26;7.10;;;5.10;;
40170;SDS011;37650;52.790;18.268;2023-08-06T21:55:48;10.80;;;5.30;;
40170;SDS011;37650;52.790;18.268;2023-08-06T21:59:09;10.80;;;7.10;;
40170;SDS011;37650;52.790;18.268;2023-08-06T22:02:30;11.20;;;7.90;;
40170;SDS011;37650;52.790;18.268;2023-08-06T22:05:52;9.90;;;6.40;;
40170;SDS011;37650;52.790;18.268;2023-08-06T22:09:12;6.10;;;4.50;;
40170;SDS011;37650;52.790;18.268;2023-08-06T22:12:34;5.70;;;4.00;;
40170;SDS011;37650;52.790;18.268;2023-08-06T22:15:55;11.60;;;5.40;;
40170;SDS011;37650;52.790;18.268;2023-08-06T22:19:17;8.40;;;5.20;;
40170;SDS011;37650;52.790;18.268;2023-08-06T22:22:39;10.90;;;5.80;;
40170;SDS011;37650;52.790;18.268;2023-08-06T22:26:00;14.10;;;5.80;;
40170;SDS011;37650;52.790;18.268;2023-08-06T22:29:21;11.40;;;5.60;;
40170;SDS011;37650;52.790;18.268;2023-08-06T22:32:42;8.80;;;5.10;;
40170;SDS011;37650;52.790;18.268;2023-08-06T22:36:04;12.30;;;5.30;;
40170;SDS011;37650;52.790;18.268;2023-08-06T22:39:25;8.20;;;5.60;;
40170;SDS011;37650;52.790;18.268;2023-08-06T22:42:47;7.70;;;5.40;;
40170;SDS011;37650;52.790;18.268;2023-08-06T22:46:08;6.80;;;4.30;;
40170;SDS011;37650;52.790;18.268;2023-08-06T22:49:29;6.30;;;3.80;;
40170;SDS011;37650;52.790;18.268;2023-08-06T22:52:50;7.10;;;3.60;;
40170;SDS011;37650;52.790;18.268;2023-08-06T22:56:12;7.60;;;5.50;;
40170;SDS011;37650;52.790;18.268;2023-08-06T22:59:33;6.60;;;4.00;;
40170;SDS011;37650;52.790;18.268;2023-08-06T23:02:54;9.00;;;5.20;;
40170;SDS011;37650;52.790;18.268;2023-08-06T23:06:16;6.30;;;4.80;;
40170;SDS011;37650;52.790;18.268;2023-08-06T23:09:37;9.00;;;5.20;;
40170;SDS011;37650;52.790;18.268;2023-08-06T23:12:58;5.90;;;4.80;;
40170;SDS011;37650;52.790;18.268;2023-08-06T23:16:20;5.60;;;4.10;;
40170;SDS011;37650;52.790;18.268;2023-08-06T23:19:41;7.50;;;3.80;;
40170;SDS011;37650;52.790;18.268;2023-08-06T23:23:03;8.40;;;5.30;;
40170;SDS011;37650;52.790;18.268;2023-08-06T23:26:24;9.50;;;5.60;;
40170;SDS011;37650;52.790;18.268;2023-08-06T23:29:45;6.50;;;3.70;;
40170;SDS011;37650;52.790;18.268;2023-08-06T23:33:07;7.70;;;3.30;;
40170;SDS011;37650;52.790;18.268;2023-08-06T23:36:28;8.60;;;4.90;;
40170;SDS011;37650;52.790;18.268;2023-08-06T23:39:49;7.80;;;4.70;;
40170;SDS011;37650;52.790;18.268;2023-08-06T23:43:16;6.20;;;3.80;;
40170;SDS011;37650;52.790;18.268;2023-08-06T23:46:37;7.90;;;4.40;;
40170;SDS011;37650;52.790;18.268;2023-08-06T23:49:59;10.50;;;5.90;;
40170;SDS011;37650;52.790;18.268;2023-08-06T23:53:20;9.50;;;4.80;;
40170;SDS011;37650;52.790;18.268;2023-08-06T23:56:41;5.50;;;3.60;;
